Time;durP1;ratioP1;P1;durP2;ratioP2;P2;SDS_P1;SDS_P2;PMS_P1;PMS_P2;Temp;Humidity;BMP_temperature;BMP_pressure;BME280_temperature;BME280_humidity;BME280_pressure;Samples;Min_cycle;Max_cycle;Signal;HPM_P1;HPM_P2
2022/10/01 00:01:15;;;;;;;2.45;1.42;;;19.00;1.00;;;;;;5014320;28;20488;-55
2022/10/01 00:03:43;;;;;;;1.50;0.55;;;19.00;1.00;;;;;;5013270;28;20034;-53
2022/10/01 00:06:12;;;;;;;3.83;1.02;;;19.00;1.00;;;;;;5013886;28;20042;-52
2022/10/01 00:08:40;;;;;;;3.03;0.60;;;19.10;1.00;;;;;;5014259;28;20357;-58
2022/10/01 00:11:27;;;;;;;3.10;0.98;;;19.20;1.00;;;;;;5014079;28;20044;-57
2022/10/01 00:13:56;;;;;;;1.55;0.73;;;19.10;1.00;;;;;;5013810;28;20122;-57
2022/10/01 00:16:26;;;;;;;2.00;0.73;;;19.10;1.00;;;;;;5013748;28;20042;-58
2022/10/01 00:18:53;;;;;;;2.63;1.27;;;19.00;1.00;;;;;;5014564;28;20081;-58
2022/10/01 00:21:22;;;;;;;2.15;0.75;;;19.10;1.00;;;;;;5013873;28;20112;-57
2022/10/01 00:24:03;;;;;;;1.77;0.68;;;19.10;1.00;;;;;;5013771;28;20048;-58
2022/10/01 00:26:33;;;;;;;1.85;0.75;;;19.10;1.00;;;;;;5014249;28;20044;-58
2022/10/01 00:29:08;;;;;;;1.17;0.68;;;19.10;1.00;;;;;;5013865;28;20092;-57
2022/10/01 00:31:35;;;;;;;1.45;0.65;;;19.10;1.00;;;;;;5013817;28;20048;-57
2022/10/01 00:34:03;;;;;;;1.55;0.40;;;19.10;1.00;;;;;;5013806;28;20034;-58
2022/10/01 00:36:31;;;;;;;1.75;0.63;;;19.20;1.00;;;;;;5012197;28;20448;-58
2022/10/01 00:38:59;;;;;;;3.28;1.17;;;19.20;1.00;;;;;;5013501;28;20096;-57
2022/10/01 00:41:28;;;;;;;2.38;1.20;;;19.20;1.00;;;;;;5014068;28;20092;-57
2022/10/01 00:44:02;;;;;;;2.42;1.15;;;19.20;1.00;;;;;;5013569;28;20042;-56
2022/10/01 00:46:40;;;;;;;1.67;0.73;;;19.20;1.00;;;;;;5013570;28;20056;-58
2022/10/01 00:49:13;;;;;;;1.48;0.70;;;19.20;1.00;;;;;;5013529;28;20096;-57
2022/10/01 00:51:44;;;;;;;2.25;0.60;;;19.20;1.00;;;;;;5013436;28;20042;-57
2022/10/01 00:54:20;;;;;;;1.33;0.60;;;19.20;1.00;;;;;;5013609;28;20056;-58
2022/10/01 00:56:50;;;;;;;0.80;0.32;;;19.20;1.00;;;;;;5013888;28;20049;-56
2022/10/01 00:59:17;;;;;;;1.55;0.40;;;19.20;1.00;;;;;;5014028;28;20060;-55
2022/10/01 01:01:44;;;;;;;2.80;0.57;;;19.20;1.00;;;;;;5013156;28;20050;-57
2022/10/01 01:04:17;;;;;;;1.23;0.57;;;19.20;1.00;;;;;;5013603;28;20502;-57
2022/10/01 01:06:54;;;;;;;1.20;0.60;;;19.20;1.00;;;;;;5013903;28;20045;-60
2022/10/01 01:09:29;;;;;;;2.65;0.70;;;19.20;1.00;;;;;;5013855;28;20069;-59
2022/10/01 01:12:25;;;;;;;1.05;0.57;;;19.20;1.00;;;;;;5013014;28;20046;-58
2022/10/01 01:14:57;;;;;;;3.97;0.95;;;19.10;1.00;;;;;;5014024;28;20128;-55
2022/10/01 01:17:32;;;;;;;2.90;0.60;;;19.10;1.00;;;;;;5017511;28;20042;-58
2022/10/01 01:20:33;;;;;;;1.25;0.45;;;19.10;1.00;;;;;;5017402;28;20052;-58
2022/10/01 01:23:15;;;;;;;1.50;0.40;;;19.10;1.00;;;;;;5017240;28;20054;-57
2022/10/01 01:26:11;;;;;;;0.55;0.30;;;19.10;1.00;;;;;;5017412;28;20034;-58
2022/10/01 01:28:43;;;;;;;0.90;0.50;;;19.10;1.00;;;;;;5017135;28;20046;-59
2022/10/01 01:31:14;;;;;;;1.02;0.50;;;18.90;1.00;;;;;;5017031;28;20041;-57
2022/10/01 01:33:44;;;;;;;1.95;0.60;;;18.80;1.00;;;;;;5016674;28;20044;-59
2022/10/01 01:36:23;;;;;;;1.40;0.50;;;18.70;1.00;;;;;;5017029;28;20137;-59
2022/10/01 01:38:54;;;;;;;1.50;0.60;;;18.70;1.00;;;;;;5016677;28;20046;-57
2022/10/01 01:41:26;;;;;;;1.10;0.40;;;18.70;1.00;;;;;;5016677;28;20046;-57
2022/10/01 01:43:55;;;;;;;1.25;0.60;;;18.70;1.00;;;;;;5016573;28;20046;-55
2022/10/01 01:46:30;;;;;;;3.20;1.00;;;18.70;1.00;;;;;;5016651;28;20076;-57
2022/10/01 01:48:59;;;;;;;1.20;0.43;;;18.70;1.00;;;;;;5016760;28;20042;-53
2022/10/01 01:51:35;;;;;;;1.15;0.70;;;18.70;1.00;;;;;;5016803;28;20042;-57
2022/10/01 01:54:02;;;;;;;2.97;0.40;;;18.70;1.00;;;;;;5016918;28;20038;-55
2022/10/01 01:56:30;;;;;;;2.20;0.65;;;18.70;1.00;;;;;;5016370;28;20049;-57
2022/10/01 01:58:59;;;;;;;0.90;0.52;;;18.70;1.00;;;;;;5016664;28;20159;-55
2022/10/01 02:01:39;;;;;;;1.65;0.50;;;18.80;1.00;;;;;;5017005;28;20042;-54
2022/10/01 02:04:23;;;;;;;1.63;0.60;;;18.90;1.00;;;;;;5016257;28;20042;-57
2022/10/01 02:07:31;;;;;;;1.27;0.50;;;18.90;1.00;;;;;;5016166;28;20476;-56
2022/10/01 02:10:23;;;;;;;1.77;0.50;;;18.90;1.00;;;;;;5016449;28;20044;-56
2022/10/01 02:13:38;;;;;;;2.30;0.77;;;18.90;1.00;;;;;;5015996;28;20088;-56
2022/10/01 02:16:32;;;;;;;0.90;0.55;;;18.90;1.00;;;;;;5015816;28;20061;-57
2022/10/01 02:19:12;;;;;;;1.33;0.50;;;18.90;1.00;;;;;;5016239;28;20038;-54
2022/10/01 02:22:00;;;;;;;2.95;0.60;;;18.90;1.00;;;;;;5015759;28;20045;-55
2022/10/01 02:24:57;;;;;;;1.15;0.40;;;18.80;1.00;;;;;;5016196;28;20049;-56
2022/10/01 02:27:31;;;;;;;1.77;0.47;;;18.80;1.00;;;;;;5015382;28;20061;-52
2022/10/01 02:30:03;;;;;;;2.08;0.43;;;18.90;1.00;;;;;;5015878;28;20042;-57
2022/10/01 02:32:31;;;;;;;2.55;0.52;;;18.80;1.00;;;;;;5015676;28;20048;-55
2022/10/01 02:34:59;;;;;;;0.80;0.43;;;18.80;1.00;;;;;;5016089;28;20096;-55
2022/10/01 02:37:27;;;;;;;2.08;0.50;;;18.80;1.00;;;;;;5015641;28;20077;-52
2022/10/01 02:39:56;;;;;;;1.40;0.50;;;18.70;1.00;;;;;;5016223;28;20053;-58
2022/10/01 02:42:25;;;;;;;2.05;0.60;;;18.70;1.00;;;;;;5015509;28;20535;-55
2022/10/01 02:44:55;;;;;;;3.58;1.10;;;18.70;1.00;;;;;;5015296;28;20037;-58
2022/10/01 02:47:33;;;;;;;3.28;0.40;;;18.70;1.00;;;;;;5015414;28;20041;-56
2022/10/01 02:50:05;;;;;;;1.15;0.50;;;18.60;1.00;;;;;;5015781;28;20069;-53
2022/10/01 02:52:40;;;;;;;4.22;0.70;;;18.60;1.00;;;;;;5015217;28;20053;-57
2022/10/01 02:55:14;;;;;;;2.88;0.88;;;18.60;1.00;;;;;;5015526;28;20034;-51
2022/10/01 02:57:41;;;;;;;1.98;0.50;;;18.60;1.00;;;;;;5015169;28;20408;-58
2022/10/01 03:00:11;;;;;;;2.05;0.57;;;18.60;1.00;;;;;;5015864;28;20042;-56
2022/10/01 03:02:38;;;;;;;2.10;1.23;;;18.60;1.00;;;;;;5015139;28;20492;-53
2022/10/01 03:05:05;;;;;;;3.25;0.70;;;18.60;1.00;;;;;;5015235;28;20042;-53
2022/10/01 03:07:34;;;;;;;2.03;0.60;;;18.60;1.00;;;;;;5015328;28;20080;-55
2022/10/01 03:10:04;;;;;;;1.52;0.63;;;18.60;1.00;;;;;;5015439;28;20472;-56
2022/10/01 03:12:32;;;;;;;2.40;1.23;;;18.60;1.00;;;;;;5014878;28;20034;-56
2022/10/01 03:14:58;;;;;;;3.17;1.00;;;18.60;1.00;;;;;;5014910;28;20455;-58
2022/10/01 03:17:26;;;;;;;5.35;0.85;;;18.60;1.00;;;;;;5015041;28;20073;-56
2022/10/01 03:19:52;;;;;;;3.22;1.00;;;18.60;1.00;;;;;;5014914;28;20053;-58
2022/10/01 03:22:23;;;;;;;2.08;0.82;;;18.60;1.00;;;;;;5014680;28;20049;-57
2022/10/01 03:24:51;;;;;;;3.38;1.05;;;18.60;1.00;;;;;;5014908;28;20077;-55
2022/10/01 03:27:19;;;;;;;4.80;0.93;;;18.50;1.00;;;;;;5014816;28;20045;-57
2022/10/01 03:29:46;;;;;;;3.38;0.60;;;18.50;1.00;;;;;;5014972;28;20040;-57
2022/10/01 03:32:14;;;;;;;2.63;0.65;;;18.50;1.00;;;;;;5014460;28;20160;-58
2022/10/01 03:34:41;;;;;;;3.35;0.82;;;18.50;1.00;;;;;;5014681;28;20064;-54
2022/10/01 03:37:07;;;;;;;2.70;0.43;;;18.50;1.00;;;;;;5014388;28;20088;-56
2022/10/01 03:39:34;;;;;;;4.15;0.70;;;18.50;1.00;;;;;;5013671;28;20029;-57
2022/10/01 03:42:04;;;;;;;4.65;0.70;;;18.50;1.00;;;;;;5014230;28;20046;-58
2022/10/01 03:44:31;;;;;;;6.10;1.05;;;18.50;1.00;;;;;;5014408;28;20044;-56
2022/10/01 03:46:58;;;;;;;2.67;0.70;;;18.50;1.00;;;;;;5014457;28;20046;-53
2022/10/01 03:49:25;;;;;;;2.78;0.63;;;18.50;1.00;;;;;;5014666;28;20411;-53
2022/10/01 03:51:51;;;;;;;1.63;0.70;;;18.50;1.00;;;;;;5014073;28;20092;-57
2022/10/01 03:54:20;;;;;;;1.90;0.55;;;18.50;1.00;;;;;;5014117;28;20046;-53
2022/10/01 03:56:47;;;;;;;4.10;1.48;;;18.50;1.00;;;;;;5014680;28;20108;-54
2022/10/01 03:59:14;;;;;;;5.20;1.60;;;18.50;1.00;;;;;;5014173;28;20053;-55
2022/10/01 04:01:41;;;;;;;4.57;1.13;;;18.50;1.00;;;;;;5014012;28;20101;-57
2022/10/01 04:04:08;;;;;;;2.80;0.90;;;18.50;1.00;;;;;;5013962;28;20404;-57
2022/10/01 04:06:35;;;;;;;1.55;0.50;;;18.50;1.00;;;;;;5013974;28;20117;-58
2022/10/01 04:09:02;;;;;;;3.38;0.90;;;18.50;1.00;;;;;;5013914;28;20104;-59
2022/10/01 04:11:29;;;;;;;2.97;0.80;;;18.50;1.00;;;;;;5013824;28;20054;-58
2022/10/01 04:13:56;;;;;;;5.15;0.80;;;18.50;1.00;;;;;;5014161;28;20042;-58
2022/10/01 04:16:24;;;;;;;2.72;1.20;;;18.50;1.00;;;;;;5013995;28;20391;-59
2022/10/01 04:18:51;;;;;;;5.32;1.00;;;18.50;1.00;;;;;;5014202;28;20041;-59
2022/10/01 04:21:17;;;;;;;6.63;1.13;;;18.40;1.00;;;;;;5014306;28;20052;-59
2022/10/01 04:23:45;;;;;;;9.48;1.08;;;18.50;1.00;;;;;;5013772;28;20050;-59
2022/10/01 04:26:12;;;;;;;4.85;1.10;;;18.40;1.00;;;;;;5013557;28;20038;-58
2022/10/01 04:28:38;;;;;;;7.00;1.10;;;18.40;1.00;;;;;;5014080;28;20069;-59
2022/10/01 04:31:23;;;;;;;2.05;0.63;;;18.50;1.00;;;;;;5013707;28;20046;-59
2022/10/01 04:33:55;;;;;;;4.88;0.77;;;18.50;1.00;;;;;;5013621;28;20038;-58
2022/10/01 04:36:23;;;;;;;3.10;1.05;;;18.50;1.00;;;;;;5013711;28;20500;-59
2022/10/01 04:38:51;;;;;;;2.05;1.13;;;18.50;1.00;;;;;;5013567;28;20416;-58
2022/10/01 04:41:24;;;;;;;3.83;1.00;;;18.40;1.00;;;;;;5013665;28;20045;-59
2022/10/01 04:43:51;;;;;;;4.47;1.05;;;18.50;1.00;;;;;;5013655;28;20100;-59
2022/10/01 04:46:18;;;;;;;3.10;0.82;;;18.40;1.00;;;;;;5013277;28;20069;-58
2022/10/01 04:48:48;;;;;;;6.32;1.45;;;18.50;1.00;;;;;;5013706;28;20088;-58
2022/10/01 04:51:15;;;;;;;5.20;1.38;;;18.50;1.00;;;;;;5013688;28;20042;-59
2022/10/01 04:53:43;;;;;;;3.03;0.90;;;18.40;1.00;;;;;;5013332;28;20049;-58
2022/10/01 04:56:09;;;;;;;4.50;1.30;;;18.40;1.00;;;;;;5013435;28;20555;-58
2022/10/01 04:58:37;;;;;;;3.40;0.70;;;18.40;1.00;;;;;;5013448;28;20136;-58
2022/10/01 05:01:04;;;;;;;5.03;1.00;;;18.40;1.00;;;;;;5013927;28;20145;-58
2022/10/01 05:03:31;;;;;;;4.80;0.70;;;18.40;1.00;;;;;;5012980;28;20045;-59
2022/10/01 05:05:57;;;;;;;4.50;1.02;;;18.50;1.00;;;;;;5013422;28;20541;-58
2022/10/01 05:08:24;;;;;;;7.72;0.88;;;18.40;1.00;;;;;;5013471;28;20541;-59
2022/10/01 05:10:51;;;;;;;3.03;0.95;;;18.40;1.00;;;;;;5013366;28;20092;-58
2022/10/01 05:13:18;;;;;;;8.35;1.33;;;18.40;1.00;;;;;;5013071;28;20038;-58
2022/10/01 05:15:49;;;;;;;5.03;1.13;;;18.40;1.00;;;;;;5013146;28;20100;-57
2022/10/01 05:18:16;;;;;;;2.45;0.95;;;18.40;1.00;;;;;;5013453;28;20069;-57
2022/10/01 05:20:42;;;;;;;3.88;0.85;;;18.40;1.00;;;;;;5013184;28;20084;-57
2022/10/01 05:23:09;;;;;;;6.97;0.90;;;18.40;1.00;;;;;;5013337;28;20431;-55
2022/10/01 05:25:36;;;;;;;5.22;1.55;;;18.40;1.00;;;;;;5013269;28;20038;-57
2022/10/01 05:28:04;;;;;;;4.82;1.25;;;18.40;1.00;;;;;;5013142;28;20042;-57
2022/10/01 05:30:32;;;;;;;4.50;1.15;;;18.40;1.00;;;;;;5013176;28;20049;-57
2022/10/01 05:33:02;;;;;;;2.97;0.85;;;18.40;1.00;;;;;;5012956;28;20049;-57
2022/10/01 05:35:29;;;;;;;7.95;1.25;;;18.40;1.00;;;;;;5013382;28;20559;-54
2022/10/01 05:37:58;;;;;;;4.47;1.40;;;18.40;1.00;;;;;;5013266;28;20092;-57
2022/10/01 05:40:27;;;;;;;3.13;0.85;;;18.40;1.00;;;;;;5013212;28;20125;-55
2022/10/01 05:42:58;;;;;;;3.38;0.77;;;18.40;1.00;;;;;;5012891;28;20124;-57
2022/10/01 05:45:30;;;;;;;2.63;0.80;;;18.40;1.00;;;;;;5010824;28;20050;-56
2022/10/01 05:47:59;;;;;;;10.65;1.48;;;18.40;1.00;;;;;;5011943;28;20073;-56
2022/10/01 05:50:30;;;;;;;5.28;0.60;;;18.40;1.00;;;;;;5004678;28;20169;-57
2022/10/01 05:52:58;;;;;;;3.40;0.98;;;18.40;1.00;;;;;;5011468;28;20073;-56
2022/10/01 05:55:25;;;;;;;5.00;1.13;;;18.40;1.00;;;;;;5012639;28;20546;-58
2022/10/01 05:58:00;;;;;;;5.60;1.30;;;18.40;1.00;;;;;;5012736;28;20042;-57
2022/10/01 06:00:28;;;;;;;2.78;1.15;;;18.40;1.00;;;;;;5012890;28;20539;-52
2022/10/01 06:02:56;;;;;;;6.53;1.02;;;18.40;1.00;;;;;;5014718;28;20037;-55
2022/10/01 06:05:24;;;;;;;10.00;1.15;;;18.40;1.00;;;;;;5016401;28;20049;-55
2022/10/01 06:07:52;;;;;;;5.15;0.75;;;18.40;1.00;;;;;;5016154;28;20074;-55
2022/10/01 06:10:20;;;;;;;4.57;1.75;;;18.40;1.00;;;;;;5016454;28;20464;-58
2022/10/01 06:12:47;;;;;;;4.82;1.05;;;18.40;1.00;;;;;;5014468;28;20469;-57
2022/10/01 06:15:16;;;;;;;3.17;0.60;;;18.40;1.00;;;;;;5016031;28;20041;-54
2022/10/01 06:17:46;;;;;;;4.43;1.40;;;18.40;1.00;;;;;;5016362;28;20046;-55
2022/10/01 06:20:15;;;;;;;6.38;0.98;;;18.30;1.00;;;;;;5016116;28;20042;-56
2022/10/01 06:22:43;;;;;;;5.63;1.27;;;18.40;1.00;;;;;;5015568;28;20112;-57
2022/10/01 06:25:12;;;;;;;4.32;1.33;;;18.30;1.00;;;;;;5016025;28;20038;-52
2022/10/01 06:27:39;;;;;;;2.92;0.90;;;18.30;1.00;;;;;;5015735;28;20412;-57
2022/10/01 06:30:07;;;;;;;5.07;1.30;;;18.30;1.00;;;;;;5014551;28;20389;-57
2022/10/01 06:32:34;;;;;;;10.55;1.48;;;18.30;1.00;;;;;;5012453;28;20046;-58
2022/10/01 06:35:01;;;;;;;2.85;0.63;;;18.30;1.00;;;;;;5016041;28;20038;-55
2022/10/01 06:37:28;;;;;;;3.75;0.77;;;18.30;1.00;;;;;;5015641;28;20042;-58
2022/10/01 06:39:55;;;;;;;5.32;1.10;;;18.30;1.00;;;;;;5015611;28;20041;-54
2022/10/01 06:42:22;;;;;;;7.07;1.42;;;18.40;1.00;;;;;;5015127;28;20397;-55
2022/10/01 06:44:49;;;;;;;8.13;1.30;;;18.40;1.00;;;;;;5015854;28;20045;-57
2022/10/01 06:47:16;;;;;;;6.95;1.35;;;18.40;1.00;;;;;;5015427;28;20042;-56
2022/10/01 06:49:43;;;;;;;14.60;2.55;;;18.60;1.00;;;;;;5015778;28;20074;-59
2022/10/01 06:55:00;;;;;;;10.85;2.45;;;18.90;1.00;;;;;;5015413;28;20064;-53
2022/10/01 06:57:27;;;;;;;11.35;1.55;;;18.90;1.00;;;;;;5013610;28;20038;-56
2022/10/01 06:59:54;;;;;;;13.15;1.20;;;18.70;1.00;;;;;;5014324;28;20050;-55
2022/10/01 07:02:26;;;;;;;10.18;2.53;;;18.50;1.00;;;;;;5014489;28;20049;-57
2022/10/01 07:04:57;;;;;;;5.32;1.33;;;18.40;1.00;;;;;;5022781;28;51477;-57
2022/10/01 07:07:31;;;;;;;6.00;1.20;;;18.40;1.00;;;;;;5032338;28;20131;-58
2022/10/01 07:09:58;;;;;;;9.93;1.02;;;18.30;1.00;;;;;;5034074;28;20059;-56
2022/10/01 07:12:25;;;;;;;9.73;1.20;;;18.30;1.00;;;;;;5028698;28;20091;-56
2022/10/01 07:14:53;;;;;;;8.00;1.58;;;18.20;1.00;;;;;;5033720;28;20499;-55
2022/10/01 07:17:20;;;;;;;8.32;2.08;;;18.30;1.00;;;;;;5032859;28;20091;-56
2022/10/01 07:19:47;;;;;;;6.70;1.40;;;18.30;1.00;;;;;;5034746;28;20041;-57
2022/10/01 07:22:14;;;;;;;9.48;1.13;;;18.20;1.00;;;;;;5033821;28;20091;-57
2022/10/01 07:24:41;;;;;;;8.57;1.20;;;18.30;1.00;;;;;;5031356;28;20396;-59
2022/10/01 07:27:08;;;;;;;8.18;1.73;;;18.20;1.00;;;;;;5033791;28;20041;-57
2022/10/01 07:29:35;;;;;;;9.32;1.55;;;18.30;1.00;;;;;;5033644;28;20074;-57
2022/10/01 07:32:07;;;;;;;11.63;1.77;;;18.20;1.00;;;;;;5033678;28;20049;-56
2022/10/01 07:34:37;;;;;;;10.85;1.50;;;18.30;1.00;;;;;;5034606;28;20053;-56
2022/10/01 07:37:03;;;;;;;10.98;1.42;;;18.30;1.00;;;;;;5034223;28;20038;-56
2022/10/01 07:39:31;;;;;;;5.47;1.10;;;18.30;1.00;;;;;;5034712;28;20037;-56
2022/10/01 07:41:57;;;;;;;10.07;2.05;;;18.30;1.00;;;;;;5033898;28;20076;-58
2022/10/01 07:44:26;;;;;;;9.57;1.88;;;18.30;1.00;;;;;;5032848;28;20571;-56
2022/10/01 07:46:53;;;;;;;14.65;2.00;;;18.30;1.00;;;;;;5033337;28;20092;-52
2022/10/01 07:49:20;;;;;;;6.13;2.08;;;18.30;1.00;;;;;;5030744;28;20373;-55
2022/10/01 07:51:47;;;;;;;9.43;1.17;;;18.30;1.00;;;;;;5022367;28;20500;-57
2022/10/01 07:54:15;;;;;;;8.38;1.85;;;18.30;1.00;;;;;;5028503;28;20041;-54
2022/10/01 07:56:41;;;;;;;9.52;1.45;;;18.30;1.00;;;;;;5033761;28;20052;-52
2022/10/01 07:59:09;;;;;;;12.07;2.10;;;18.40;1.00;;;;;;5033894;28;20041;-52
2022/10/01 08:01:36;;;;;;;9.73;2.35;;;18.40;1.00;;;;;;5033691;28;20041;-52
2022/10/01 08:05:16;;;;;;;6.57;1.35;;;18.40;1.00;;;;;;5033708;28;20124;-52
2022/10/01 08:06:52;;;;;;;6.28;1.98;;;18.30;1.00;;;;;;5033672;28;20052;-53
2022/10/01 08:09:19;;;;;;;9.93;2.15;;;18.40;1.00;;;;;;5033876;28;20065;-55
2022/10/01 08:11:47;;;;;;;8.00;1.23;;;18.40;1.00;;;;;;5033226;28;20423;-52
2022/10/01 08:14:15;;;;;;;6.10;1.27;;;18.40;1.00;;;;;;5033720;28;20045;-53
2022/10/01 08:16:41;;;;;;;6.90;1.30;;;18.30;1.00;;;;;;5033670;28;20503;-55
2022/10/01 08:19:08;;;;;;;8.43;1.17;;;18.30;1.00;;;;;;5033403;28;20041;-51
2022/10/01 08:21:35;;;;;;;10.18;1.85;;;18.30;1.00;;;;;;5033199;28;20446;-55
2022/10/01 08:24:03;;;;;;;4.38;1.00;;;18.30;1.00;;;;;;5033688;28;20541;-51
2022/10/01 08:26:30;;;;;;;8.57;1.90;;;18.20;1.00;;;;;;5040503;28;20037;-57
2022/10/01 08:28:58;;;;;;;13.00;1.73;;;18.30;1.00;;;;;;5034129;28;20037;-54
2022/10/01 08:31:25;;;;;;;5.03;1.17;;;18.30;1.00;;;;;;5031968;28;20037;-54
2022/10/01 08:33:52;;;;;;;5.18;2.03;;;18.30;1.00;;;;;;5032583;28;20123;-53
2022/10/01 08:36:19;;;;;;;10.07;1.70;;;18.40;1.00;;;;;;5032892;28;20467;-53
2022/10/01 08:38:47;;;;;;;5.22;1.90;;;18.40;1.00;;;;;;5033563;28;20132;-55
2022/10/01 08:41:56;;;;;;;7.95;1.92;;;18.60;1.00;;;;;;5043177;28;20075;-58
2022/10/01 08:44:29;;;;;;;5.78;1.58;;;18.70;1.00;;;;;;5051156;28;20048;-52
2022/10/01 08:47:05;;;;;;;10.68;2.22;;;18.90;1.00;;;;;;5039097;28;20053;-48
2022/10/01 08:49:47;;;;;;;10.02;1.42;;;19.00;1.00;;;;;;5034662;28;20054;-53
2022/10/01 08:52:21;;;;;;;10.18;1.67;;;19.00;1.00;;;;;;5029033;28;20037;-54
2022/10/01 08:54:54;;;;;;;9.80;1.63;;;19.00;1.00;;;;;;5033078;28;20038;-53
2022/10/01 08:57:27;;;;;;;4.95;1.25;;;19.00;1.00;;;;;;5033590;28;20045;-57
2022/10/01 08:59:58;;;;;;;9.07;1.58;;;18.90;1.00;;;;;;5033451;28;20056;-53
2022/10/01 09:02:30;;;;;;;6.95;1.80;;;19.00;1.00;;;;;;5032754;28;20099;-53
2022/10/01 09:05:01;;;;;;;5.93;1.75;;;19.00;1.00;;;;;;5033713;28;20049;-50
2022/10/01 09:07:47;;;;;;;7.03;1.40;;;19.00;1.00;;;;;;5033080;28;20107;-50
2022/10/01 09:10:23;;;;;;;7.28;2.00;;;19.00;1.00;;;;;;5032085;28;20042;-50
2022/10/01 09:13:03;;;;;;;13.13;2.35;;;19.00;1.00;;;;;;5048623;28;20037;-53
2022/10/01 09:15:33;;;;;;;5.55;1.42;;;19.00;1.00;;;;;;5053085;28;20049;-50
2022/10/01 09:18:37;;;;;;;12.35;1.70;;;19.00;1.00;;;;;;5052888;28;20049;-51
2022/10/01 09:21:11;;;;;;;7.32;2.10;;;19.10;1.00;;;;;;5053229;28;20483;-56
2022/10/01 09:23:54;;;;;;;8.00;1.70;;;19.20;1.00;;;;;;5038242;28;20041;-58
2022/10/01 09:26:21;;;;;;;7.18;2.08;;;19.20;1.00;;;;;;5033017;28;20402;-54
2022/10/01 09:28:54;;;;;;;19.65;1.48;;;19.20;1.00;;;;;;5033206;28;20095;-57
2022/10/01 09:31:36;;;;;;;9.85;1.52;;;19.10;1.00;;;;;;5033158;28;20049;-54
2022/10/01 09:34:18;;;;;;;6.03;1.23;;;19.00;1.00;;;;;;5033529;28;20084;-55
2022/10/01 09:37:26;;;;;;;4.75;1.27;;;18.90;1.00;;;;;;5033016;28;20041;-54
2022/10/01 09:40:33;;;;;;;8.40;1.13;;;18.90;1.00;;;;;;5042606;28;20490;-55
2022/10/01 09:43:06;;;;;;;7.45;1.20;;;19.00;1.00;;;;;;5053947;28;20053;-54
2022/10/01 09:45:35;;;;;;;9.25;1.95;;;19.10;1.00;;;;;;5042036;28;20053;-53
2022/10/01 09:48:39;;;;;;;13.77;2.38;;;19.10;1.00;;;;;;5036225;28;20087;-56
2022/10/01 09:51:30;;;;;;;3.92;1.52;;;19.10;1.00;;;;;;5036212;28;20047;-51
2022/10/01 09:54:25;;;;;;;6.53;2.58;;;19.10;1.00;;;;;;5036649;28;20056;-54
2022/10/01 09:57:00;;;;;;;7.32;1.73;;;19.00;1.00;;;;;;5016318;28;20046;-52
2022/10/01 09:59:34;;;;;;;6.97;1.63;;;19.00;1.00;;;;;;5025213;28;20472;-55
2022/10/01 10:02:13;;;;;;;10.35;2.60;;;19.00;1.00;;;;;;5035793;28;20472;-55
2022/10/01 10:04:41;;;;;;;8.73;1.80;;;19.00;1.00;;;;;;5036111;28;20499;-54
2022/10/01 10:07:16;;;;;;;7.88;1.88;;;19.00;1.00;;;;;;5036016;28;20037;-55
2022/10/01 10:09:44;;;;;;;6.65;1.40;;;19.10;1.00;;;;;;5036391;28;20065;-51
2022/10/01 10:12:40;;;;;;;5.03;1.45;;;19.00;1.00;;;;;;5035723;28;20048;-53
2022/10/01 10:15:17;;;;;;;9.82;2.47;;;19.00;1.00;;;;;;5027461;28;20052;-53
2022/10/01 10:17:50;;;;;;;6.35;1.75;;;19.10;1.00;;;;;;5046582;28;20401;-55
2022/10/01 10:20:24;;;;;;;11.18;2.28;;;19.00;1.00;;;;;;5046427;28;20126;-52
2022/10/01 10:22:51;;;;;;;10.35;1.92;;;19.00;1.00;;;;;;5032503;28;20052;-54
2022/10/01 10:25:23;;;;;;;8.63;1.83;;;19.00;1.00;;;;;;5035862;28;20392;-56
2022/10/01 10:27:54;;;;;;;7.60;1.30;;;19.00;1.00;;;;;;5035968;28;20046;-56
2022/10/01 10:30:23;;;;;;;4.07;1.83;;;19.00;1.00;;;;;;5035642;28;20041;-50
2022/10/01 10:33:01;;;;;;;4.22;2.20;;;19.00;1.00;;;;;;5035507;28;20049;-53
2022/10/01 10:35:29;;;;;;;10.65;2.63;;;19.00;1.00;;;;;;5035718;28;20456;-52
2022/10/01 10:37:57;;;;;;;10.93;1.70;;;19.10;1.00;;;;;;5035226;28;20107;-54
2022/10/01 10:40:28;;;;;;;6.82;2.15;;;19.10;1.00;;;;;;5033732;28;20117;-53
2022/10/01 10:42:57;;;;;;;7.57;2.15;;;19.10;1.00;;;;;;5047155;28;20445;-55
2022/10/01 10:45:37;;;;;;;4.18;1.42;;;19.10;1.00;;;;;;5046413;28;20099;-54
2022/10/01 10:48:10;;;;;;;6.40;1.85;;;19.20;1.00;;;;;;5022710;28;20053;-54
2022/10/01 10:50:39;;;;;;;10.63;1.95;;;19.20;1.00;;;;;;5015845;28;20443;-53
2022/10/01 10:53:21;;;;;;;9.57;1.67;;;19.20;1.00;;;;;;5014972;28;20033;-55
2022/10/01 10:56:00;;;;;;;7.18;1.83;;;19.20;1.00;;;;;;5034379;28;20045;-56
2022/10/01 10:58:39;;;;;;;7.63;1.15;;;19.20;1.00;;;;;;5035282;28;20484;-57
2022/10/01 11:01:08;;;;;;;4.63;1.27;;;19.20;1.00;;;;;;5033627;28;20048;-54
2022/10/01 11:03:40;;;;;;;6.47;1.42;;;19.20;1.00;;;;;;5034925;28;20046;-57
2022/10/01 11:06:13;;;;;;;10.85;2.13;;;19.20;1.00;;;;;;5035149;28;20053;-52
2022/10/01 11:08:41;;;;;;;6.93;2.78;;;19.30;1.00;;;;;;5034802;28;20095;-53
2022/10/01 11:11:36;;;;;;;5.50;1.67;;;19.30;1.00;;;;;;5034807;28;20037;-55
2022/10/01 11:14:43;;;;;;;6.13;1.30;;;19.30;1.00;;;;;;5034997;28;20042;-54
2022/10/01 11:17:26;;;;;;;8.50;1.67;;;19.30;1.00;;;;;;5035010;28;20463;-52
2022/10/01 11:20:16;;;;;;;6.35;1.23;;;19.30;1.00;;;;;;5034858;28;20045;-52
2022/10/01 11:23:22;;;;;;;4.47;1.63;;;19.30;1.00;;;;;;5034229;28;20048;-58
2022/10/01 11:26:10;;;;;;;8.87;1.83;;;19.30;1.00;;;;;;5034496;28;20380;-57
2022/10/01 11:28:49;;;;;;;7.85;1.88;;;19.30;1.00;;;;;;5033901;28;20301;-60
2022/10/01 11:31:34;;;;;;;6.15;2.45;;;19.30;1.00;;;;;;5034105;28;20045;-59
2022/10/01 11:34:36;;;;;;;4.78;1.25;;;19.20;1.00;;;;;;5034287;28;20037;-57
2022/10/01 11:37:31;;;;;;;5.25;1.48;;;19.20;1.00;;;;;;5030339;28;20057;-53
2022/10/01 11:40:07;;;;;;;5.47;1.83;;;19.20;1.00;;;;;;5034328;28;20052;-57
2022/10/01 11:42:36;;;;;;;4.80;1.90;;;19.20;1.00;;;;;;5033861;28;20068;-57
2022/10/01 11:45:35;;;;;;;6.50;1.70;;;19.20;1.00;;;;;;5034331;28;20049;-55
2022/10/01 11:48:22;;;;;;;4.20;1.63;;;19.20;1.00;;;;;;5033855;28;20348;-57
2022/10/01 11:50:52;;;;;;;4.82;2.17;;;19.20;1.00;;;;;;5034228;28;20048;-53
2022/10/01 11:53:29;;;;;;;8.45;2.58;;;19.20;1.00;;;;;;5033982;28;20041;-53
2022/10/01 11:59:11;;;;;;;8.98;1.65;;;19.20;1.00;;;;;;5033749;28;20041;-51
2022/10/01 12:01:48;;;;;;;11.65;2.05;;;19.20;1.00;;;;;;5033372;28;20038;-51
2022/10/01 12:04:44;;;;;;;11.73;1.75;;;19.30;1.00;;;;;;5034100;28;20038;-53
2022/10/01 12:07:46;;;;;;;3.88;1.55;;;19.20;1.00;;;;;;5033533;28;20049;-54
2022/10/01 12:10:13;;;;;;;9.00;1.35;;;19.20;1.00;;;;;;5015479;28;20411;-56
2022/10/01 12:12:56;;;;;;;7.10;1.90;;;19.30;1.00;;;;;;5033302;28;20068;-55
2022/10/01 12:15:48;;;;;;;5.95;1.70;;;19.30;1.00;;;;;;5033775;28;20045;-54
2022/10/01 12:18:38;;;;;;;6.35;1.50;;;19.30;1.00;;;;;;5033603;28;20050;-55
2022/10/01 12:21:18;;;;;;;4.13;1.30;;;19.30;1.00;;;;;;5033314;28;20432;-53
2022/10/01 12:23:53;;;;;;;7.70;1.95;;;19.30;1.00;;;;;;5013466;28;20046;-56
2022/10/01 12:26:38;;;;;;;10.68;2.25;;;19.30;1.00;;;;;;5013632;28;20493;-51
2022/10/01 12:29:56;;;;;;;8.80;1.88;;;19.30;1.00;;;;;;5013308;28;20037;-55
2022/10/01 12:32:40;;;;;;;5.22;1.90;;;19.30;1.00;;;;;;4972208;28;20062;-54
2022/10/01 12:35:25;;;;;;;8.25;1.85;;;19.30;1.00;;;;;;4972721;28;20047;-52
2022/10/01 12:38:14;;;;;;;10.95;2.65;;;19.30;1.00;;;;;;5005380;28;20057;-56
2022/10/01 12:40:52;;;;;;;5.90;1.73;;;19.30;1.00;;;;;;5013562;28;20499;-53
2022/10/01 12:43:48;;;;;;;7.70;0.95;;;19.30;1.00;;;;;;5013100;28;20046;-54
2022/10/01 12:46:59;;;;;;;6.53;1.67;;;19.30;1.00;;;;;;5013478;28;20049;-53
2022/10/01 12:49:48;;;;;;;6.20;1.20;;;19.30;1.00;;;;;;4972362;28;20047;-52
2022/10/01 12:52:20;;;;;;;4.63;1.13;;;19.30;1.00;;;;;;4971690;28;20046;-52
2022/10/01 12:55:04;;;;;;;8.43;1.40;;;19.30;1.00;;;;;;5001783;28;20057;-52
2022/10/01 12:58:06;;;;;;;;;;;19.30;1.00;;;;;;5013649;28;20506;-56
2022/10/01 13:00:44;;;;;;;3.90;1.45;;;19.30;1.00;;;;;;5011219;28;20181;-54
2022/10/01 13:03:42;;;;;;;10.00;2.55;;;19.30;1.00;;;;;;5012630;28;20133;-51
2022/10/01 13:06:41;;;;;;;6.25;1.33;;;19.40;1.00;;;;;;5012120;28;20054;-55
2022/10/01 13:09:25;;;;;;;9.07;1.40;;;19.30;1.00;;;;;;5013086;28;20073;-53
2022/10/01 13:12:06;;;;;;;;;;;19.40;1.00;;;;;;5015725;28;20064;-57
2022/10/01 13:14:34;;;;;;;5.38;1.38;;;19.40;1.00;;;;;;5016985;28;20351;-54
2022/10/01 13:17:13;;;;;;;7.35;1.45;;;19.40;1.00;;;;;;5017075;28;20519;-55
2022/10/01 13:20:02;;;;;;;10.95;1.30;;;19.40;1.00;;;;;;5017407;28;20062;-56
2022/10/01 13:22:35;;;;;;;7.07;1.80;;;19.40;1.00;;;;;;5016700;28;20088;-57
2022/10/01 13:25:37;;;;;;;10.82;1.55;;;19.40;1.00;;;;;;5017182;28;20057;-53
2022/10/01 13:28:16;;;;;;;6.47;1.35;;;19.40;1.00;;;;;;4995271;28;20064;-56
2022/10/01 13:31:00;;;;;;;5.55;1.50;;;19.40;1.00;;;;;;5016814;28;20066;-57
2022/10/01 13:33:35;;;;;;;7.43;1.48;;;19.40;1.00;;;;;;5016398;28;20038;-48
2022/10/01 13:36:05;;;;;;;6.72;1.42;;;19.40;1.00;;;;;;5016877;28;20049;-55
2022/10/01 13:38:42;;;;;;;7.82;1.45;;;19.40;1.00;;;;;;5016670;28;20045;-55